sensor_id;sensor_type;location;lat;lon;timestamp;P1;P2;P0
80413;PMS5003;69758;52.580;13.068;2024-03-08T00:01:38;55;47;
80413;PMS5003;69758;52.580;13.068;2024-03-08T00:04:03;50;49;
80413;PMS5003;69758;52.580;13.068;2024-03-08T00:06:29;48;42;
80413;PMS5003;69758;52.580;13.068;2024-03-08T00:08:54;49;46;
80413;PMS5003;69758;52.580;13.068;2024-03-08T00:11:20;48;43;
80413;PMS5003;69758;52.580;13.068;2024-03-08T00:13:45;56;53;
80413;PMS5003;69758;52.580;13.068;2024-03-08T00:16:11;53;49;
80413;PMS5003;69758;52.580;13.068;2024-03-08T00:18:36;50;43;
80413;PMS5003;69758;52.580;13.068;2024-03-08T00:21:01;58;51;
80413;PMS5003;69758;52.580;13.068;2024-03-08T00:23:27;50;46;
80413;PMS5003;69758;52.580;13.068;2024-03-08T00:25:52;45;41;
80413;PMS5003;69758;52.580;13.068;2024-03-08T00:28:18;61;53;
80413;PMS5003;69758;52.580;13.068;2024-03-08T00:30:43;51;47;
80413;PMS5003;69758;52.580;13.068;2024-03-08T00:33:08;42;41;
80413;PMS5003;69758;52.580;13.068;2024-03-08T00:35:33;51;47;
80413;PMS5003;69758;52.580;13.068;2024-03-08T00:37:59;38;37;
80413;PMS5003;69758;52.580;13.068;2024-03-08T00:40:24;45;41;
80413;PMS5003;69758;52.580;13.068;2024-03-08T00:42:50;51;42;
80413;PMS5003;69758;52.580;13.068;2024-03-08T00:45:15;50;45;
80413;PMS5003;69758;52.580;13.068;2024-03-08T00:47:41;50;45;
80413;PMS5003;69758;52.580;13.068;2024-03-08T00:50:07;45;44;
80413;PMS5003;69758;52.580;13.068;2024-03-08T00:52:32;53;48;
80413;PMS5003;69758;52.580;13.068;2024-03-08T00:54:57;46;44;
80413;PMS5003;69758;52.580;13.068;2024-03-08T00:57:22;54;46;
80413;PMS5003;69758;52.580;13.068;2024-03-08T00:59:47;46;40;
80413;PMS5003;69758;52.580;13.068;2024-03-08T01:02:13;50;45;
80413;PMS5003;69758;52.580;13.068;2024-03-08T01:04:39;52;48;
80413;PMS5003;69758;52.580;13.068;2024-03-08T01:07:04;44;41;
80413;PMS5003;69758;52.580;13.068;2024-03-08T01:09:30;50;46;
80413;PMS5003;69758;52.580;13.068;2024-03-08T01:11:55;49;44;
80413;PMS5003;69758;52.580;13.068;2024-03-08T01:14:21;50;49;
80413;PMS5003;69758;52.580;13.068;2024-03-08T01:16:46;52;48;
80413;PMS5003;69758;52.580;13.068;2024-03-08T01:19:11;45;42;
80413;PMS5003;69758;52.580;13.068;2024-03-08T01:21:36;56;49;
80413;PMS5003;69758;52.580;13.068;2024-03-08T01:24:02;57;48;
80413;PMS5003;69758;52.580;13.068;2024-03-08T01:26:28;52;50;
80413;PMS5003;69758;52.580;13.068;2024-03-08T01:28:53;53;49;
80413;PMS5003;69758;52.580;13.068;2024-03-08T01:31:19;45;42;
80413;PMS5003;69758;52.580;13.068;2024-03-08T01:33:44;63;52;
80413;PMS5003;69758;52.580;13.068;2024-03-08T01:36:09;41;41;
80413;PMS5003;69758;52.580;13.068;2024-03-08T01:38:35;51;47;
80413;PMS5003;69758;52.580;13.068;2024-03-08T01:41:00;45;42;
80413;PMS5003;69758;52.580;13.068;2024-03-08T01:43:26;45;42;
80413;PMS5003;69758;52.580;13.068;2024-03-08T01:45:51;44;41;
80413;PMS5003;69758;52.580;13.068;2024-03-08T01:48:16;48;41;
80413;PMS5003;69758;52.580;13.068;2024-03-08T01:50:41;50;46;
80413;PMS5003;69758;52.580;13.068;2024-03-08T01:53:06;42;41;
80413;PMS5003;69758;52.580;13.068;2024-03-08T01:55:32;45;41;
80413;PMS5003;69758;52.580;13.068;2024-03-08T01:57:58;53;49;
80413;PMS5003;69758;52.580;13.068;2024-03-08T02:00:23;40;38;
80413;PMS5003;69758;52.580;13.068;2024-03-08T02:02:49;45;40;
80413;PMS5003;69758;52.580;13.068;2024-03-08T02:05:14;41;36;
80413;PMS5003;69758;52.580;13.068;2024-03-08T02:07:40;47;46;
80413;PMS5003;69758;52.580;13.068;2024-03-08T02:10:05;48;44;
80413;PMS5003;69758;52.580;13.068;2024-03-08T02:12:30;38;37;
80413;PMS5003;69758;52.580;13.068;2024-03-08T02:14:55;54;44;
80413;PMS5003;69758;52.580;13.068;2024-03-08T02:17:21;42;40;
80413;PMS5003;69758;52.580;13.068;2024-03-08T02:19:47;41;40;
80413;PMS5003;69758;52.580;13.068;2024-03-08T02:22:12;48;44;
80413;PMS5003;69758;52.580;13.068;2024-03-08T02:24:38;49;43;
80413;PMS5003;69758;52.580;13.068;2024-03-08T02:27:04;53;49;
80413;PMS5003;69758;52.580;13.068;2024-03-08T02:29:29;44;40;
80413;PMS5003;69758;52.580;13.068;2024-03-08T02:31:55;47;44;
80413;PMS5003;69758;52.580;13.068;2024-03-08T02:34:20;59;52;
80413;PMS5003;69758;52.580;13.068;2024-03-08T02:36:46;48;44;
80413;PMS5003;69758;52.580;13.068;2024-03-08T02:39:11;55;51;
80413;PMS5003;69758;52.580;13.068;2024-03-08T02:41:36;50;49;
80413;PMS5003;69758;52.580;13.068;2024-03-08T02:44:02;51;42;
80413;PMS5003;69758;52.580;13.068;2024-03-08T02:46:27;48;46;
80413;PMS5003;69758;52.580;13.068;2024-03-08T02:48:52;46;44;
80413;PMS5003;69758;52.580;13.068;2024-03-08T02:51:18;67;63;
80413;PMS5003;69758;52.580;13.068;2024-03-08T02:53:44;73;69;
80413;PMS5003;69758;52.580;13.068;2024-03-08T02:56:09;62;55;
80413;PMS5003;69758;52.580;13.068;2024-03-08T02:58:35;69;63;
80413;PMS5003;69758;52.580;13.068;2024-03-08T03:01:00;58;55;
80413;PMS5003;69758;52.580;13.068;2024-03-08T03:03:26;65;57;
80413;PMS5003;69758;52.580;13.068;2024-03-08T03:05:51;48;44;
80413;PMS5003;69758;52.580;13.068;2024-03-08T03:08:17;51;48;
80413;PMS5003;69758;52.580;13.068;2024-03-08T03:10:42;48;47;
80413;PMS5003;69758;52.580;13.068;2024-03-08T03:13:08;51;48;
80413;PMS5003;69758;52.580;13.068;2024-03-08T03:15:33;41;37;
80413;PMS5003;69758;52.580;13.068;2024-03-08T03:17:58;44;43;
80413;PMS5003;69758;52.580;13.068;2024-03-08T03:20:24;46;43;
80413;PMS5003;69758;52.580;13.068;2024-03-08T03:22:50;49;45;
80413;PMS5003;69758;52.580;13.068;2024-03-08T03:25:15;54;50;
80413;PMS5003;69758;52.580;13.068;2024-03-08T03:27:40;51;43;
80413;PMS5003;69758;52.580;13.068;2024-03-08T03:30:06;44;43;
80413;PMS5003;69758;52.580;13.068;2024-03-08T03:32:31;44;44;
80413;PMS5003;69758;52.580;13.068;2024-03-08T03:34:56;56;50;
80413;PMS5003;69758;52.580;13.068;2024-03-08T03:37:22;47;45;
80413;PMS5003;69758;52.580;13.068;2024-03-08T03:39:47;49;44;
80413;PMS5003;69758;52.580;13.068;2024-03-08T03:42:12;50;44;
80413;PMS5003;69758;52.580;13.068;2024-03-08T03:44:38;50;43;
80413;PMS5003;69758;52.580;13.068;2024-03-08T03:47:04;53;49;
80413;PMS5003;69758;52.580;13.068;2024-03-08T03:49:30;54;47;
80413;PMS5003;69758;52.580;13.068;2024-03-08T03:51:56;58;54;
80413;PMS5003;69758;52.580;13.068;2024-03-08T03:54:21;54;47;
80413;PMS5003;69758;52.580;13.068;2024-03-08T03:56:46;57;51;
80413;PMS5003;69758;52.580;13.068;2024-03-08T03:59:12;52;45;
80413;PMS5003;69758;52.580;13.068;2024-03-08T04:01:41;41;38;
80413;PMS5003;69758;52.580;13.068;2024-03-08T04:04:03;49;42;
80413;PMS5003;69758;52.580;13.068;2024-03-08T04:06:28;49;42;
80413;PMS5003;69758;52.580;13.068;2024-03-08T04:08:54;50;46;
80413;PMS5003;69758;52.580;13.068;2024-03-08T04:11:19;56;46;
80413;PMS5003;69758;52.580;13.068;2024-03-08T04:13:44;63;54;
80413;PMS5003;69758;52.580;13.068;2024-03-08T04:16:10;43;41;
80413;PMS5003;69758;52.580;13.068;2024-03-08T04:18:35;49;42;
80413;PMS5003;69758;52.580;13.068;2024-03-08T04:21:01;41;38;
80413;PMS5003;69758;52.580;13.068;2024-03-08T04:23:27;48;43;
80413;PMS5003;69758;52.580;13.068;2024-03-08T04:25:52;63;47;
80413;PMS5003;69758;52.580;13.068;2024-03-08T04:28:18;48;43;
80413;PMS5003;69758;52.580;13.068;2024-03-08T04:30:44;43;39;
80413;PMS5003;69758;52.580;13.068;2024-03-08T04:33:09;57;49;
80413;PMS5003;69758;52.580;13.068;2024-03-08T04:35:35;48;45;
80413;PMS5003;69758;52.580;13.068;2024-03-08T04:38:01;54;46;
80413;PMS5003;69758;52.580;13.068;2024-03-08T04:40:26;45;43;
80413;PMS5003;69758;52.580;13.068;2024-03-08T04:42:51;50;46;
80413;PMS5003;69758;52.580;13.068;2024-03-08T04:45:17;52;46;
80413;PMS5003;69758;52.580;13.068;2024-03-08T04:47:42;52;49;
80413;PMS5003;69758;52.580;13.068;2024-03-08T04:50:08;54;50;
80413;PMS5003;69758;52.580;13.068;2024-03-08T04:52:34;42;39;
80413;PMS5003;69758;52.580;13.068;2024-03-08T04:55:00;47;45;
80413;PMS5003;69758;52.580;13.068;2024-03-08T04:57:25;46;41;
80413;PMS5003;69758;52.580;13.068;2024-03-08T04:59:50;51;44;
80413;PMS5003;69758;52.580;13.068;2024-03-08T05:02:16;43;42;
80413;PMS5003;69758;52.580;13.068;2024-03-08T05:04:41;50;48;
80413;PMS5003;69758;52.580;13.068;2024-03-08T05:07:07;42;39;
80413;PMS5003;69758;52.580;13.068;2024-03-08T05:09:32;50;42;
80413;PMS5003;69758;52.580;13.068;2024-03-08T05:11:57;52;48;
80413;PMS5003;69758;52.580;13.068;2024-03-08T05:14:23;53;48;
80413;PMS5003;69758;52.580;13.068;2024-03-08T05:16:48;49;44;
80413;PMS5003;69758;52.580;13.068;2024-03-08T05:19:14;56;52;
80413;PMS5003;69758;52.580;13.068;2024-03-08T05:21:39;44;44;
80413;PMS5003;69758;52.580;13.068;2024-03-08T05:24:04;60;55;
80413;PMS5003;69758;52.580;13.068;2024-03-08T05:26:30;44;38;
80413;PMS5003;69758;52.580;13.068;2024-03-08T05:28:55;52;46;
80413;PMS5003;69758;52.580;13.068;2024-03-08T05:31:21;49;46;
80413;PMS5003;69758;52.580;13.068;2024-03-08T05:33:46;51;44;
80413;PMS5003;69758;52.580;13.068;2024-03-08T05:36:12;51;47;
80413;PMS5003;69758;52.580;13.068;2024-03-08T05:38:37;50;44;
80413;PMS5003;69758;52.580;13.068;2024-03-08T05:41:03;48;44;
80413;PMS5003;69758;52.580;13.068;2024-03-08T05:43:29;72;65;
80413;PMS5003;69758;52.580;13.068;2024-03-08T05:45:53;56;55;
80413;PMS5003;69758;52.580;13.068;2024-03-08T05:48:19;59;55;
80413;PMS5003;69758;52.580;13.068;2024-03-08T05:50:44;47;45;
80413;PMS5003;69758;52.580;13.068;2024-03-08T05:53:09;52;47;
80413;PMS5003;69758;52.580;13.068;2024-03-08T05:55:34;52;44;
80413;PMS5003;69758;52.580;13.068;2024-03-08T05:58:00;54;49;
80413;PMS5003;69758;52.580;13.068;2024-03-08T06:00:25;53;47;
80413;PMS5003;69758;52.580;13.068;2024-03-08T06:02:51;51;47;
80413;PMS5003;69758;52.580;13.068;2024-03-08T06:05:16;52;44;
80413;PMS5003;69758;52.580;13.068;2024-03-08T06:07:42;59;49;
80413;PMS5003;69758;52.580;13.068;2024-03-08T06:10:08;51;47;
80413;PMS5003;69758;52.580;13.068;2024-03-08T06:12:32;56;48;
80413;PMS5003;69758;52.580;13.068;2024-03-08T06:14:58;55;52;
80413;PMS5003;69758;52.580;13.068;2024-03-08T06:17:23;46;42;
80413;PMS5003;69758;52.580;13.068;2024-03-08T06:19:49;53;48;
80413;PMS5003;69758;52.580;13.068;2024-03-08T06:22:14;60;53;
80413;PMS5003;69758;52.580;13.068;2024-03-08T06:24:39;52;41;
80413;PMS5003;69758;52.580;13.068;2024-03-08T06:27:05;47;46;
80413;PMS5003;69758;52.580;13.068;2024-03-08T06:29:31;52;50;
80413;PMS5003;69758;52.580;13.068;2024-03-08T06:31:56;46;42;
80413;PMS5003;69758;52.580;13.068;2024-03-08T06:34:22;47;43;
80413;PMS5003;69758;52.580;13.068;2024-03-08T06:36:48;50;49;
80413;PMS5003;69758;52.580;13.068;2024-03-08T06:39:13;49;47;
80413;PMS5003;69758;52.580;13.068;2024-03-08T06:41:38;52;49;
80413;PMS5003;69758;52.580;13.068;2024-03-08T06:44:04;53;49;
80413;PMS5003;69758;52.580;13.068;2024-03-08T06:46:29;61;56;
80413;PMS5003;69758;52.580;13.068;2024-03-08T06:48:54;52;48;
80413;PMS5003;69758;52.580;13.068;2024-03-08T06:51:19;48;46;
80413;PMS5003;69758;52.580;13.068;2024-03-08T06:53:45;55;48;
80413;PMS5003;69758;52.580;13.068;2024-03-08T06:56:11;55;52;
80413;PMS5003;69758;52.580;13.068;2024-03-08T06:58:36;64;52;
80413;PMS5003;69758;52.580;13.068;2024-03-08T07:01:02;62;56;
80413;PMS5003;69758;52.580;13.068;2024-03-08T07:03:28;64;57;
80413;PMS5003;69758;52.580;13.068;2024-03-08T07:05:53;64;61;
80413;PMS5003;69758;52.580;13.068;2024-03-08T07:08:18;67;58;
80413;PMS5003;69758;52.580;13.068;2024-03-08T07:10:43;84;79;
80413;PMS5003;69758;52.580;13.068;2024-03-08T07:13:09;60;57;
80413;PMS5003;69758;52.580;13.068;2024-03-08T07:15:35;62;55;
80413;PMS5003;69758;52.580;13.068;2024-03-08T07:18:00;58;54;
80413;PMS5003;69758;52.580;13.068;2024-03-08T07:20:25;59;57;
80413;PMS5003;69758;52.580;13.068;2024-03-08T07:22:51;58;56;
80413;PMS5003;69758;52.580;13.068;2024-03-08T07:25:17;58;52;
80413;PMS5003;69758;52.580;13.068;2024-03-08T07:27:42;74;70;
80413;PMS5003;69758;52.580;13.068;2024-03-08T07:30:08;61;55;
80413;PMS5003;69758;52.580;13.068;2024-03-08T07:32:33;60;56;
80413;PMS5003;69758;52.580;13.068;2024-03-08T07:34:59;59;51;
80413;PMS5003;69758;52.580;13.068;2024-03-08T07:37:24;61;52;
80413;PMS5003;69758;52.580;13.068;2024-03-08T07:39:49;50;47;
80413;PMS5003;69758;52.580;13.068;2024-03-08T07:42:15;62;56;
80413;PMS5003;69758;52.580;13.068;2024-03-08T07:44:40;58;48;
80413;PMS5003;69758;52.580;13.068;2024-03-08T07:47:05;57;53;
80413;PMS5003;69758;52.580;13.068;2024-03-08T07:49:30;65;63;
80413;PMS5003;69758;52.580;13.068;2024-03-08T07:51:55;65;59;
80413;PMS5003;69758;52.580;13.068;2024-03-08T07:54:21;64;58;
80413;PMS5003;69758;52.580;13.068;2024-03-08T07:56:46;60;55;
80413;PMS5003;69758;52.580;13.068;2024-03-08T07:59:11;66;61;
80413;PMS5003;69758;52.580;13.068;2024-03-08T08:01:37;61;57;
80413;PMS5003;69758;52.580;13.068;2024-03-08T08:04:04;66;58;
80413;PMS5003;69758;52.580;13.068;2024-03-08T08:06:28;69;59;
80413;PMS5003;69758;52.580;13.068;2024-03-08T08:08:54;67;57;
80413;PMS5003;69758;52.580;13.068;2024-03-08T08:11:19;63;53;
80413;PMS5003;69758;52.580;13.068;2024-03-08T08:13:44;54;53;
80413;PMS5003;69758;52.580;13.068;2024-03-08T08:16:10;64;57;
80413;PMS5003;69758;52.580;13.068;2024-03-08T08:18:35;53;49;
80413;PMS5003;69758;52.580;13.068;2024-03-08T08:21:00;59;50;
80413;PMS5003;69758;52.580;13.068;2024-03-08T08:23:26;67;59;
80413;PMS5003;69758;52.580;13.068;2024-03-08T08:25:52;55;53;
80413;PMS5003;69758;52.580;13.068;2024-03-08T08:28:17;59;52;
80413;PMS5003;69758;52.580;13.068;2024-03-08T08:30:42;70;63;
80413;PMS5003;69758;52.580;13.068;2024-03-08T08:33:08;60;55;
80413;PMS5003;69758;52.580;13.068;2024-03-08T08:35:34;59;54;
80413;PMS5003;69758;52.580;13.068;2024-03-08T08:37:59;61;54;
80413;PMS5003;69758;52.580;13.068;2024-03-08T08:40:25;62;55;
80413;PMS5003;69758;52.580;13.068;2024-03-08T08:42:50;52;49;
80413;PMS5003;69758;52.580;13.068;2024-03-08T08:45:15;65;57;
80413;PMS5003;69758;52.580;13.068;2024-03-08T08:47:41;55;44;
80413;PMS5003;69758;52.580;13.068;2024-03-08T08:50:06;59;53;
80413;PMS5003;69758;52.580;13.068;2024-03-08T08:52:32;64;55;
80413;PMS5003;69758;52.580;13.068;2024-03-08T08:54:57;72;70;
80413;PMS5003;69758;52.580;13.068;2024-03-08T08:57:23;55;52;
80413;PMS5003;69758;52.580;13.068;2024-03-08T08:59:49;58;55;
80413;PMS5003;69758;52.580;13.068;2024-03-08T09:02:14;70;64;
80413;PMS5003;69758;52.580;13.068;2024-03-08T09:04:39;63;56;
80413;PMS5003;69758;52.580;13.068;2024-03-08T09:07:04;62;58;
80413;PMS5003;69758;52.580;13.068;2024-03-08T09:09:29;87;73;
80413;PMS5003;69758;52.580;13.068;2024-03-08T09:11:55;84;73;
80413;PMS5003;69758;52.580;13.068;2024-03-08T09:14:21;80;72;
80413;PMS5003;69758;52.580;13.068;2024-03-08T09:16:46;70;67;
80413;PMS5003;69758;52.580;13.068;2024-03-08T09:19:12;67;61;
80413;PMS5003;69758;52.580;13.068;2024-03-08T09:21:37;73;63;
80413;PMS5003;69758;52.580;13.068;2024-03-08T09:24:03;70;64;
80413;PMS5003;69758;52.580;13.068;2024-03-08T09:26:28;70;64;
80413;PMS5003;69758;52.580;13.068;2024-03-08T09:28:54;66;56;
80413;PMS5003;69758;52.580;13.068;2024-03-08T09:31:19;52;47;
80413;PMS5003;69758;52.580;13.068;2024-03-08T09:33:45;43;38;
80413;PMS5003;69758;52.580;13.068;2024-03-08T09:36:11;53;44;
80413;PMS5003;69758;52.580;13.068;2024-03-08T09:38:36;41;36;
80413;PMS5003;69758;52.580;13.068;2024-03-08T09:41:01;39;35;
80413;PMS5003;69758;52.580;13.068;2024-03-08T09:43:26;47;40;
80413;PMS5003;69758;52.580;13.068;2024-03-08T09:45:52;53;50;
80413;PMS5003;69758;52.580;13.068;2024-03-08T09:48:17;52;47;
80413;PMS5003;69758;52.580;13.068;2024-03-08T09:50:43;49;46;
80413;PMS5003;69758;52.580;13.068;2024-03-08T09:53:09;58;50;
80413;PMS5003;69758;52.580;13.068;2024-03-08T09:55:34;54;48;
80413;PMS5003;69758;52.580;13.068;2024-03-08T09:57:59;49;44;
80413;PMS5003;69758;52.580;13.068;2024-03-08T10:00:25;50;46;
80413;PMS5003;69758;52.580;13.068;2024-03-08T10:02:50;49;46;
80413;PMS5003;69758;52.580;13.068;2024-03-08T10:05:16;48;45;
80413;PMS5003;69758;52.580;13.068;2024-03-08T10:07:42;50;45;
80413;PMS5003;69758;52.580;13.068;2024-03-08T10:10:07;39;38;
80413;PMS5003;69758;52.580;13.068;2024-03-08T10:12:32;53;46;
80413;PMS5003;69758;52.580;13.068;2024-03-08T10:14:58;49;46;
80413;PMS5003;69758;52.580;13.068;2024-03-08T10:17:24;54;50;
80413;PMS5003;69758;52.580;13.068;2024-03-08T10:19:49;49;46;
80413;PMS5003;69758;52.580;13.068;2024-03-08T10:22:14;54;46;
80413;PMS5003;69758;52.580;13.068;2024-03-08T10:24:39;42;41;
80413;PMS5003;69758;52.580;13.068;2024-03-08T10:27:04;47;43;
80413;PMS5003;69758;52.580;13.068;2024-03-08T10:29:30;52;47;
80413;PMS5003;69758;52.580;13.068;2024-03-08T10:31:55;62;58;
80413;PMS5003;69758;52.580;13.068;2024-03-08T10:34:20;45;45;
80413;PMS5003;69758;52.580;13.068;2024-03-08T10:36:45;52;48;
80413;PMS5003;69758;52.580;13.068;2024-03-08T10:39:13;47;44;
80413;PMS5003;69758;52.580;13.068;2024-03-08T10:41:37;49;48;
80413;PMS5003;69758;52.580;13.068;2024-03-08T10:44:07;49;44;
80413;PMS5003;69758;52.580;13.068;2024-03-08T10:46:30;50;45;
80413;PMS5003;69758;52.580;13.068;2024-03-08T10:48:53;42;37;
80413;PMS5003;69758;52.580;13.068;2024-03-08T10:51:18;45;42;
80413;PMS5003;69758;52.580;13.068;2024-03-08T10:53:43;49;44;
80413;PMS5003;69758;52.580;13.068;2024-03-08T10:56:09;39;37;
80413;PMS5003;69758;52.580;13.068;2024-03-08T10:58:35;41;39;
80413;PMS5003;69758;52.580;13.068;2024-03-08T11:05:52;38;37;
80413;PMS5003;69758;52.580;13.068;2024-03-08T11:08:16;41;39;
80413;PMS5003;69758;52.580;13.068;2024-03-08T11:10:46;36;32;
80413;PMS5003;69758;52.580;13.068;2024-03-08T11:15:33;49;47;
80413;PMS5003;69758;52.580;13.068;2024-03-08T11:17:58;66;62;
80413;PMS5003;69758;52.580;13.068;2024-03-08T11:20:23;41;39;
80413;PMS5003;69758;52.580;13.068;2024-03-08T11:22:49;39;33;
80413;PMS5003;69758;52.580;13.068;2024-03-08T11:27:39;40;35;
80413;PMS5003;69758;52.580;13.068;2024-03-08T11:30:05;37;36;
80413;PMS5003;69758;52.580;13.068;2024-03-08T11:32:30;37;35;
80413;PMS5003;69758;52.580;13.068;2024-03-08T11:34:56;35;34;
80413;PMS5003;69758;52.580;13.068;2024-03-08T11:37:22;45;43;
80413;PMS5003;69758;52.580;13.068;2024-03-08T11:39:48;35;35;
80413;PMS5003;69758;52.580;13.068;2024-03-08T11:42:13;40;38;
80413;PMS5003;69758;52.580;13.068;2024-03-08T11:44:38;46;46;
80413;PMS5003;69758;52.580;13.068;2024-03-08T11:47:07;47;42;
80413;PMS5003;69758;52.580;13.068;2024-03-08T11:49:28;33;33;
80413;PMS5003;69758;52.580;13.068;2024-03-08T11:51:54;35;33;
80413;PMS5003;69758;52.580;13.068;2024-03-08T11:54:20;41;38;
80413;PMS5003;69758;52.580;13.068;2024-03-08T11:56:45;38;36;
80413;PMS5003;69758;52.580;13.068;2024-03-08T11:59:11;39;37;
80413;PMS5003;69758;52.580;13.068;2024-03-08T12:01:37;30;27;
80413;PMS5003;69758;52.580;13.068;2024-03-08T12:04:02;32;30;
80413;PMS5003;69758;52.580;13.068;2024-03-08T12:06:27;34;34;
80413;PMS5003;69758;52.580;13.068;2024-03-08T12:08:58;33;31;
80413;PMS5003;69758;52.580;13.068;2024-03-08T12:11:18;41;38;
80413;PMS5003;69758;52.580;13.068;2024-03-08T12:13:43;40;38;
80413;PMS5003;69758;52.580;13.068;2024-03-08T12:16:09;28;27;
80413;PMS5003;69758;52.580;13.068;2024-03-08T12:18:37;33;33;
80413;PMS5003;69758;52.580;13.068;2024-03-08T12:21:05;28;27;
80413;PMS5003;69758;52.580;13.068;2024-03-08T12:23:25;39;36;
80413;PMS5003;69758;52.580;13.068;2024-03-08T12:25:51;32;31;
80413;PMS5003;69758;52.580;13.068;2024-03-08T12:28:18;36;34;
80413;PMS5003;69758;52.580;13.068;2024-03-08T12:30:46;34;30;
80413;PMS5003;69758;52.580;13.068;2024-03-08T12:33:08;38;33;
80413;PMS5003;69758;52.580;13.068;2024-03-08T12:35:34;33;30;
80413;PMS5003;69758;52.580;13.068;2024-03-08T12:37:59;32;30;
80413;PMS5003;69758;52.580;13.068;2024-03-08T12:40:26;31;30;
80413;PMS5003;69758;52.580;13.068;2024-03-08T12:42:51;36;34;
80413;PMS5003;69758;52.580;13.068;2024-03-08T12:45:16;32;28;
80413;PMS5003;69758;52.580;13.068;2024-03-08T12:47:41;38;35;
80413;PMS5003;69758;52.580;13.068;2024-03-08T12:50:07;34;31;
80413;PMS5003;69758;52.580;13.068;2024-03-08T12:52:32;38;37;
80413;PMS5003;69758;52.580;13.068;2024-03-08T12:54:58;35;34;
80413;PMS5003;69758;52.580;13.068;2024-03-08T12:57:23;33;29;
80413;PMS5003;69758;52.580;13.068;2024-03-08T12:59:49;32;29;
80413;PMS5003;69758;52.580;13.068;2024-03-08T13:02:14;32;32;
80413;PMS5003;69758;52.580;13.068;2024-03-08T13:04:39;37;35;
80413;PMS5003;69758;52.580;13.068;2024-03-08T13:07:05;37;34;
80413;PMS5003;69758;52.580;13.068;2024-03-08T13:09:30;38;32;
80413;PMS5003;69758;52.580;13.068;2024-03-08T13:11:56;39;33;
80413;PMS5003;69758;52.580;13.068;2024-03-08T13:14:21;37;35;
80413;PMS5003;69758;52.580;13.068;2024-03-08T13:16:47;30;29;
80413;PMS5003;69758;52.580;13.068;2024-03-08T13:19:12;40;38;
80413;PMS5003;69758;52.580;13.068;2024-03-08T13:21:38;36;33;
80413;PMS5003;69758;52.580;13.068;2024-03-08T13:24:03;34;32;
80413;PMS5003;69758;52.580;13.068;2024-03-08T13:26:28;32;31;
80413;PMS5003;69758;52.580;13.068;2024-03-08T13:28:54;37;34;
80413;PMS5003;69758;52.580;13.068;2024-03-08T13:31:19;30;28;
80413;PMS5003;69758;52.580;13.068;2024-03-08T13:33:45;31;31;
80413;PMS5003;69758;52.580;13.068;2024-03-08T13:36:10;37;33;
80413;PMS5003;69758;52.580;13.068;2024-03-08T13:38:36;36;33;
80413;PMS5003;69758;52.580;13.068;2024-03-08T13:41:01;36;34;
80413;PMS5003;69758;52.580;13.068;2024-03-08T13:43:27;37;34;
80413;PMS5003;69758;52.580;13.068;2024-03-08T13:45:52;34;32;
80413;PMS5003;69758;52.580;13.068;2024-03-08T13:48:17;38;33;
80413;PMS5003;69758;52.580;13.068;2024-03-08T13:50:43;37;35;
80413;PMS5003;69758;52.580;13.068;2024-03-08T13:53:08;35;35;
80413;PMS5003;69758;52.580;13.068;2024-03-08T13:55:34;27;26;
80413;PMS5003;69758;52.580;13.068;2024-03-08T13:58:00;36;33;
80413;PMS5003;69758;52.580;13.068;2024-03-08T14:00:26;51;47;
80413;PMS5003;69758;52.580;13.068;2024-03-08T14:02:51;39;38;
80413;PMS5003;69758;52.580;13.068;2024-03-08T14:05:17;38;36;
80413;PMS5003;69758;52.580;13.068;2024-03-08T14:07:42;33;30;
80413;PMS5003;69758;52.580;13.068;2024-03-08T14:10:08;35;33;
80413;PMS5003;69758;52.580;13.068;2024-03-08T14:12:33;38;36;
80413;PMS5003;69758;52.580;13.068;2024-03-08T14:14:58;54;50;
80413;PMS5003;69758;52.580;13.068;2024-03-08T14:17:24;32;32;
80413;PMS5003;69758;52.580;13.068;2024-03-08T14:19:49;41;40;
80413;PMS5003;69758;52.580;13.068;2024-03-08T14:22:15;41;39;
80413;PMS5003;69758;52.580;13.068;2024-03-08T14:24:41;44;42;
80413;PMS5003;69758;52.580;13.068;2024-03-08T14:27:06;36;36;
80413;PMS5003;69758;52.580;13.068;2024-03-08T14:29:31;36;36;
80413;PMS5003;69758;52.580;13.068;2024-03-08T14:31:57;39;38;
80413;PMS5003;69758;52.580;13.068;2024-03-08T14:34:23;35;34;
80413;PMS5003;69758;52.580;13.068;2024-03-08T14:36:48;35;30;
80413;PMS5003;69758;52.580;13.068;2024-03-08T14:39:14;35;31;
80413;PMS5003;69758;52.580;13.068;2024-03-08T14:41:39;36;33;
80413;PMS5003;69758;52.580;13.068;2024-03-08T14:44:05;27;26;
80413;PMS5003;69758;52.580;13.068;2024-03-08T14:46:31;38;34;
80413;PMS5003;69758;52.580;13.068;2024-03-08T14:48:56;45;41;
80413;PMS5003;69758;52.580;13.068;2024-03-08T14:51:22;37;35;
80413;PMS5003;69758;52.580;13.068;2024-03-08T14:53:47;37;36;
80413;PMS5003;69758;52.580;13.068;2024-03-08T14:56:13;48;42;
80413;PMS5003;69758;52.580;13.068;2024-03-08T14:58:38;52;42;
80413;PMS5003;69758;52.580;13.068;2024-03-08T15:01:04;39;36;
80413;PMS5003;69758;52.580;13.068;2024-03-08T15:03:29;41;39;
80413;PMS5003;69758;52.580;13.068;2024-03-08T15:05:54;46;43;
80413;PMS5003;69758;52.580;13.068;2024-03-08T15:08:19;39;37;
80413;PMS5003;69758;52.580;13.068;2024-03-08T15:10:45;45;39;
80413;PMS5003;69758;52.580;13.068;2024-03-08T15:13:09;39;38;
80413;PMS5003;69758;52.580;13.068;2024-03-08T15:15:35;39;39;
80413;PMS5003;69758;52.580;13.068;2024-03-08T15:18:01;41;40;
80413;PMS5003;69758;52.580;13.068;2024-03-08T15:20:27;36;35;
80413;PMS5003;69758;52.580;13.068;2024-03-08T15:22:51;44;41;
80413;PMS5003;69758;52.580;13.068;2024-03-08T15:25:16;37;37;
80413;PMS5003;69758;52.580;13.068;2024-03-08T15:27:42;43;40;
80413;PMS5003;69758;52.580;13.068;2024-03-08T15:30:08;38;36;
80413;PMS5003;69758;52.580;13.068;2024-03-08T15:32:33;43;38;
80413;PMS5003;69758;52.580;13.068;2024-03-08T15:34:59;44;41;
80413;PMS5003;69758;52.580;13.068;2024-03-08T15:37:24;45;43;
80413;PMS5003;69758;52.580;13.068;2024-03-08T15:39:49;30;30;
80413;PMS5003;69758;52.580;13.068;2024-03-08T15:42:16;45;43;
80413;PMS5003;69758;52.580;13.068;2024-03-08T15:44:40;42;38;
80413;PMS5003;69758;52.580;13.068;2024-03-08T15:47:05;40;40;
80413;PMS5003;69758;52.580;13.068;2024-03-08T15:49:31;48;44;
80413;PMS5003;69758;52.580;13.068;2024-03-08T15:51:56;42;39;
80413;PMS5003;69758;52.580;13.068;2024-03-08T15:54:22;42;39;
80413;PMS5003;69758;52.580;13.068;2024-03-08T15:56:47;36;34;
80413;PMS5003;69758;52.580;13.068;2024-03-08T15:59:12;35;32;